createdAt,value
2022-12-05T00:01:27.006Z,39.85
2022-12-05T00:04:14.015Z,36.55
2022-12-05T00:06:59.178Z,38.47
2022-12-05T00:09:44.695Z,40.40
2022-12-05T00:12:29.695Z,40.30
2022-12-05T00:15:15.130Z,41.28
2022-12-05T00:18:00.484Z,40.63
2022-12-05T00:20:46.923Z,39.40
2022-12-05T00:23:32.321Z,37.97
2022-12-05T00:26:17.703Z,43.47
2022-12-05T00:29:03.754Z,41.53
2022-12-05T00:31:49.063Z,45.78
2022-12-05T00:34:34.261Z,42.15
2022-12-05T00:37:19.821Z,41.15
2022-12-05T00:40:05.940Z,48.15
2022-12-05T00:42:52.575Z,43.15
2022-12-05T00:45:37.839Z,42.30
2022-12-05T00:48:22.872Z,47.75
2022-12-05T00:51:12.098Z,41.53
2022-12-05T00:54:07.187Z,41.22
2022-12-05T00:56:56.332Z,40.72
2022-12-05T00:59:41.757Z,39.28
2022-12-05T01:02:26.860Z,44.20
2022-12-05T01:05:13.171Z,41.10
2022-12-05T01:07:58.157Z,44.90
2022-12-05T01:10:53.107Z,39.95
2022-12-05T01:13:38.340Z,41.83
2022-12-05T01:16:24.858Z,41.50
2022-12-05T01:19:15.247Z,40.25
2022-12-05T01:22:00.835Z,42.65
2022-12-05T01:24:46.049Z,41.75
2022-12-05T01:27:31.503Z,40.17
2022-12-05T01:30:16.863Z,46.25
2022-12-05T01:33:02.226Z,41.45
2022-12-05T01:35:47.456Z,41.70
2022-12-05T01:38:32.814Z,42.03
2022-12-05T01:41:21.564Z,42.88
2022-12-05T01:44:12.795Z,42.20
2022-12-05T01:46:58.011Z,38.03
2022-12-05T01:49:44.042Z,40.17
2022-12-05T01:52:31.707Z,41.60
2022-12-05T01:55:18.905Z,41.35
2022-12-05T01:58:06.729Z,42.47
2022-12-05T02:00:52.133Z,46.22
2022-12-05T02:03:38.015Z,36.75
2022-12-05T02:06:25.641Z,39.28
2022-12-05T02:09:10.568Z,37.03
2022-12-05T02:12:00.735Z,37.17
2022-12-05T02:15:13.725Z,36.78
2022-12-05T02:18:09.379Z,41.08
2022-12-05T02:21:25.575Z,42.40
2022-12-05T02:24:17.024Z,33.63
2022-12-05T02:27:01.811Z,41.50
2022-12-05T02:29:58.104Z,37.35
2022-12-05T02:32:49.796Z,33.83
2022-12-05T02:35:43.025Z,34.72
2022-12-05T02:38:45.064Z,37.33
2022-12-05T02:41:33.285Z,46.83
2022-12-05T02:44:56.822Z,38.90
2022-12-05T02:47:50.114Z,35.97
2022-12-05T02:50:38.951Z,31.73
2022-12-05T02:53:27.063Z,34.45
2022-12-05T02:56:12.763Z,38.72
2022-12-05T02:58:57.802Z,38.42
2022-12-05T03:01:46.028Z,36.42
2022-12-05T03:04:31.972Z,38.80
2022-12-05T03:07:20.063Z,31.42
2022-12-05T03:10:08.297Z,35.83
2022-12-05T03:13:03.136Z,36.47
2022-12-05T03:15:53.380Z,36.08
2022-12-05T03:18:52.758Z,37.15
2022-12-05T03:21:46.398Z,31.13
2022-12-05T03:24:31.836Z,33.05
2022-12-05T03:27:35.384Z,34.80
2022-12-05T03:30:23.005Z,34.38
2022-12-05T03:33:15.332Z,33.40
2022-12-05T03:36:18.402Z,35.35
2022-12-05T03:39:19.686Z,31.60
2022-12-05T03:42:14.390Z,33.33
2022-12-05T03:45:16.056Z,31.27
2022-12-05T03:48:14.212Z,35.78
2022-12-05T03:51:01.115Z,30.35
2022-12-05T03:53:59.685Z,30.63
2022-12-05T03:57:12.253Z,40.35
2022-12-05T04:00:09.950Z,39.17
2022-12-05T04:03:02.678Z,32.72
2022-12-05T04:06:01.436Z,35.65
2022-12-05T04:08:58.361Z,33.28
2022-12-05T04:11:46.868Z,37.08
2022-12-05T04:14:42.038Z,29.58
2022-12-05T04:17:31.464Z,33.97
2022-12-05T04:21:10.914Z,31.23
2022-12-05T04:24:14.500Z,30.75
2022-12-05T04:27:27.734Z,29.33
2022-12-05T04:30:25.534Z,28.52
2022-12-05T04:33:32.447Z,29.40
2022-12-05T04:36:33.915Z,31.10
2022-12-05T04:39:41.081Z,28.23
2022-12-05T04:42:29.837Z,26.55
2022-12-05T04:45:19.374Z,25.30
2022-12-05T04:48:11.862Z,27.88
2022-12-05T04:50:57.364Z,32.97
2022-12-05T04:53:45.357Z,27.90
2022-12-05T04:56:33.695Z,25.02
2022-12-05T04:59:18.848Z,26.63
2022-12-05T05:02:08.225Z,21.58
2022-12-05T05:04:57.846Z,26.73
2022-12-05T05:07:45.809Z,25.02
2022-12-05T05:10:50.773Z,22.50
2022-12-05T05:13:35.722Z,23.85
2022-12-05T05:16:30.341Z,23.33
2022-12-05T05:19:15.627Z,23.98
2022-12-05T05:22:00.899Z,28.55
2022-12-05T05:24:46.266Z,25.13
2022-12-05T05:27:31.449Z,24.10
2022-12-05T05:30:17.642Z,28.60
2022-12-05T05:33:02.541Z,23.00
2022-12-05T05:35:47.844Z,22.50
2022-12-05T05:38:41.513Z,23.58
2022-12-05T05:41:30.965Z,20.65
2022-12-05T05:44:15.978Z,22.35
2022-12-05T05:47:01.265Z,19.13
2022-12-05T05:49:46.571Z,20.10
2022-12-05T05:52:38.194Z,21.98
2022-12-05T05:55:23.556Z,21.50
2022-12-05T05:58:09.476Z,22.58
2022-12-05T06:00:54.543Z,20.33
2022-12-05T06:03:40.753Z,18.73
2022-12-05T06:06:26.463Z,19.55
2022-12-05T06:09:11.377Z,20.10
2022-12-05T06:11:56.658Z,15.18
2022-12-05T06:14:41.828Z,21.25
2022-12-05T06:17:27.113Z,20.33
2022-12-05T06:20:12.606Z,18.83
2022-12-05T06:22:57.679Z,16.80
2022-12-05T06:25:48.517Z,20.45
2022-12-05T06:28:33.840Z,20.23
2022-12-05T06:31:22.887Z,17.52
2022-12-05T06:34:07.963Z,15.07
2022-12-05T06:36:53.132Z,18.63
2022-12-05T06:39:38.793Z,19.13
2022-12-05T06:42:23.879Z,16.25
2022-12-05T06:45:09.189Z,16.13
2022-12-05T06:47:54.299Z,19.95
2022-12-05T06:50:39.431Z,16.63
2022-12-05T06:53:24.628Z,19.15
2022-12-05T06:56:12.746Z,19.30
2022-12-05T06:58:58.071Z,18.00
2022-12-05T07:01:43.919Z,17.00
2022-12-05T07:04:29.512Z,17.80
2022-12-05T07:07:14.872Z,22.13
2022-12-05T07:10:00.563Z,18.38
2022-12-05T07:12:45.962Z,26.60
2022-12-05T07:15:31.291Z,19.45
2022-12-05T07:18:17.600Z,17.80
2022-12-05T07:21:13.897Z,19.10
2022-12-05T07:23:59.754Z,17.60
2022-12-05T07:26:44.825Z,18.45
2022-12-05T07:29:30.213Z,20.88
2022-12-05T07:32:15.752Z,15.18
2022-12-05T07:35:00.952Z,20.08
2022-12-05T07:37:46.144Z,16.85
2022-12-05T07:40:31.563Z,21.48
2022-12-05T07:43:16.483Z,16.83
2022-12-05T07:46:06.959Z,17.58
2022-12-05T07:48:52.850Z,21.13
2022-12-05T07:51:38.936Z,21.15
2022-12-05T07:54:24.169Z,16.38
2022-12-05T07:57:09.614Z,14.70
2022-12-05T07:59:54.462Z,20.27
2022-12-05T08:02:40.936Z,18.60
2022-12-05T08:05:26.556Z,15.57
2022-12-05T08:08:11.813Z,13.38
2022-12-05T08:11:02.420Z,15.95
2022-12-05T08:13:48.586Z,13.48
2022-12-05T08:16:34.113Z,13.93
2022-12-05T08:19:19.337Z,13.70
2022-12-05T08:22:04.449Z,12.98
2022-12-05T08:24:56.168Z,15.68
2022-12-05T08:27:41.483Z,14.80
2022-12-05T08:30:27.535Z,19.83
2022-12-05T08:33:12.938Z,21.52
2022-12-05T08:36:03.586Z,14.00
2022-12-05T08:38:48.807Z,20.35
2022-12-05T08:41:34.564Z,16.33
2022-12-05T08:44:19.906Z,14.38
2022-12-05T08:47:05.164Z,16.55
2022-12-05T08:49:50.371Z,18.35
2022-12-05T08:52:35.605Z,14.20
2022-12-05T08:55:20.856Z,17.85
2022-12-05T08:58:06.070Z,17.02
2022-12-05T09:00:51.338Z,14.25
2022-12-05T09:03:36.884Z,12.82
2022-12-05T09:06:24.562Z,17.48
2022-12-05T09:09:11.704Z,16.50
2022-12-05T09:11:57.871Z,17.50
2022-12-05T09:14:42.992Z,16.10
2022-12-05T09:17:27.782Z,20.75
2022-12-05T09:20:13.975Z,17.95
2022-12-05T09:22:58.907Z,19.75
2022-12-05T09:25:43.988Z,19.00
2022-12-05T09:28:30.006Z,19.45
2022-12-05T09:31:21.602Z,15.27
2022-12-05T09:34:07.155Z,19.42
2022-12-05T09:37:05.434Z,19.27
2022-12-05T09:39:51.070Z,20.63
2022-12-05T09:42:58.759Z,18.85
2022-12-05T09:45:54.031Z,16.70
2022-12-05T09:48:40.959Z,22.55
2022-12-05T09:51:26.798Z,25.15
2022-12-05T09:54:13.163Z,17.75
2022-12-05T09:56:58.857Z,21.25
2022-12-05T09:59:44.353Z,24.08
2022-12-05T10:02:44.993Z,21.90
2022-12-05T10:05:41.644Z,23.45
2022-12-05T10:08:38.020Z,18.48
2022-12-05T10:11:36.208Z,23.15
2022-12-05T10:14:43.059Z,19.80
2022-12-05T10:17:37.848Z,17.23
2022-12-05T10:20:30.815Z,21.27
2022-12-05T10:23:49.357Z,20.77
2022-12-05T10:26:45.767Z,20.85
2022-12-05T10:29:40.475Z,19.83
2022-12-05T10:32:36.365Z,23.90
2022-12-05T10:35:24.797Z,21.25
2022-12-05T10:38:25.824Z,21.98
2022-12-05T10:41:13.932Z,22.17
2022-12-05T10:43:59.771Z,23.33
2022-12-05T10:46:45.187Z,20.17
2022-12-05T10:49:32.687Z,21.25
2022-12-05T10:52:17.829Z,18.95
2022-12-05T10:55:06.610Z,20.80
2022-12-05T10:58:10.354Z,19.52
2022-12-05T11:01:06.995Z,26.23
2022-12-05T11:04:01.044Z,18.92
2022-12-05T11:06:53.434Z,21.30
2022-12-05T11:09:39.271Z,16.95
2022-12-05T11:12:28.376Z,26.77
2022-12-05T11:15:16.926Z,19.00
2022-12-05T11:18:32.543Z,18.55
2022-12-05T11:21:19.482Z,19.00
2022-12-05T11:24:31.577Z,20.90
2022-12-05T11:27:16.557Z,29.60
2022-12-05T11:30:22.365Z,26.52
2022-12-05T11:33:29.001Z,20.05
2022-12-05T11:36:23.370Z,19.30
2022-12-05T11:39:12.030Z,19.55
2022-12-05T11:42:20.003Z,16.87
2022-12-05T11:45:48.881Z,14.52
2022-12-05T11:48:58.900Z,24.30
2022-12-05T11:52:05.752Z,16.65
2022-12-05T11:55:14.786Z,15.77
2022-12-05T11:58:26.938Z,15.40
2022-12-05T12:01:18.484Z,16.08
2022-12-05T12:04:25.205Z,24.17
2022-12-05T12:07:16.141Z,16.98
2022-12-05T12:10:10.404Z,14.85
2022-12-05T12:13:19.917Z,16.38
2022-12-05T12:16:15.601Z,17.02
2022-12-05T12:19:19.752Z,15.75
2022-12-05T12:22:26.241Z,21.30
2022-12-05T12:25:20.458Z,19.63
2022-12-05T12:28:41.619Z,18.90
2022-12-05T12:32:00.756Z,21.17
2022-12-05T12:34:49.566Z,17.58
2022-12-05T12:37:51.318Z,18.10
2022-12-05T12:40:39.590Z,18.77
2022-12-05T12:43:53.297Z,18.30
2022-12-05T12:46:53.791Z,18.85
2022-12-05T12:49:53.913Z,19.40
2022-12-05T12:52:59.221Z,18.88
2022-12-05T12:56:01.387Z,16.17
2022-12-05T12:58:58.822Z,24.40
2022-12-05T13:01:48.257Z,16.77
2022-12-05T13:04:49.845Z,20.58
2022-12-05T13:07:45.741Z,20.70
2022-12-05T13:10:35.927Z,18.10
2022-12-05T13:13:27.502Z,19.95
2022-12-05T13:16:23.152Z,16.60
2022-12-05T13:19:23.312Z,19.92
2022-12-05T13:22:08.867Z,19.23
2022-12-05T13:24:54.881Z,16.00
2022-12-05T13:27:42.800Z,14.18
2022-12-05T13:30:28.686Z,12.80
2022-12-05T13:33:25.367Z,14.65
2022-12-05T13:36:35.323Z,14.50
2022-12-05T13:39:41.351Z,21.40
2022-12-05T13:42:31.908Z,13.35
2022-12-05T13:45:20.041Z,14.55
2022-12-05T13:48:22.390Z,12.90
2022-12-05T13:51:25.342Z,13.18
2022-12-05T13:54:19.569Z,13.77
2022-12-05T13:57:05.246Z,12.77
2022-12-05T14:00:05.856Z,8.80
2022-12-05T14:02:53.669Z,9.63
2022-12-05T14:05:47.743Z,11.95
2022-12-05T14:08:35.794Z,15.93
2022-12-05T14:11:21.225Z,14.20
2022-12-05T14:14:10.301Z,12.75
2022-12-05T14:16:55.556Z,10.77
2022-12-05T14:19:53.783Z,8.65
2022-12-05T14:23:12.715Z,11.60
2022-12-05T14:26:13.963Z,8.10
2022-12-05T14:29:17.178Z,10.73
2022-12-05T14:32:23.860Z,16.08
2022-12-05T14:35:30.109Z,12.05
2022-12-05T14:38:30.309Z,11.77
2022-12-05T14:41:27.352Z,10.73
2022-12-05T14:44:19.471Z,11.65
2022-12-05T14:47:06.983Z,16.50
2022-12-05T14:50:02.169Z,9.75
2022-12-05T14:53:33.386Z,14.75
2022-12-05T14:56:25.010Z,20.15
2022-12-05T14:59:30.057Z,9.82
2022-12-05T15:02:22.394Z,10.05
2022-12-05T15:05:27.834Z,9.98
2022-12-05T15:08:15.632Z,11.30
2022-12-05T15:11:01.206Z,6.30
2022-12-05T15:13:47.260Z,8.63
2022-12-05T15:16:33.553Z,8.57
2022-12-05T15:19:44.329Z,12.88
2022-12-05T15:22:35.121Z,10.98
2022-12-05T15:25:22.217Z,11.88
2022-12-05T15:28:19.586Z,10.95
2022-12-05T15:31:06.940Z,12.90
2022-12-05T15:33:57.639Z,8.15
2022-12-05T15:36:48.548Z,9.85
2022-12-05T15:39:53.954Z,10.15
2022-12-05T15:42:43.419Z,9.93
2022-12-05T15:45:30.451Z,7.90
2022-12-05T15:48:22.552Z,9.05
2022-12-05T15:51:08.398Z,9.48
2022-12-05T15:54:00.949Z,9.88
2022-12-05T15:56:57.934Z,6.05
2022-12-05T15:59:50.561Z,13.98
2022-12-05T16:02:48.448Z,8.90
2022-12-05T16:05:46.135Z,6.80
2022-12-05T16:08:40.697Z,8.38
2022-12-05T16:11:26.183Z,7.18
2022-12-05T16:14:18.255Z,5.80
2022-12-05T16:17:16.875Z,6.80
2022-12-05T16:20:22.991Z,7.80
2022-12-05T16:23:28.507Z,6.97
2022-12-05T16:26:13.705Z,8.25
2022-12-05T16:29:02.446Z,6.53
2022-12-05T16:31:54.917Z,9.43
2022-12-05T16:34:41.087Z,8.48
2022-12-05T16:37:28.306Z,6.15
2022-12-05T16:40:22.871Z,6.75
2022-12-05T16:43:20.523Z,9.35
2022-12-05T16:46:12.872Z,7.03
2022-12-05T16:49:21.272Z,9.07
2022-12-05T16:52:09.452Z,8.75
2022-12-05T16:54:54.927Z,6.78
2022-12-05T16:57:40.049Z,6.95
2022-12-05T17:00:25.050Z,7.65
2022-12-05T17:03:33.514Z,7.03
2022-12-05T17:06:18.999Z,6.13
2022-12-05T17:09:03.887Z,5.95
2022-12-05T17:11:52.813Z,5.65
2022-12-05T17:14:38.127Z,7.03
2022-12-05T17:17:23.246Z,9.48
2022-12-05T17:20:17.366Z,6.63
2022-12-05T17:23:02.352Z,5.95
2022-12-05T17:25:51.229Z,8.18
2022-12-05T17:28:36.412Z,5.85
2022-12-05T17:31:23.774Z,7.05
2022-12-05T17:34:17.707Z,6.65
2022-12-05T17:37:02.992Z,8.40
2022-12-05T17:39:48.292Z,45.22
2022-12-05T17:42:33.308Z,7.88
2022-12-05T17:45:18.462Z,10.13
2022-12-05T17:48:03.900Z,7.85
2022-12-05T17:50:49.724Z,12.05
2022-12-05T17:53:34.713Z,6.55
2022-12-05T17:56:20.202Z,7.03
2022-12-05T17:59:07.408Z,5.15
2022-12-05T18:01:52.792Z,8.77
2022-12-05T18:04:38.491Z,8.98
2022-12-05T18:07:23.428Z,7.68
2022-12-05T18:10:13.065Z,6.65
2022-12-05T18:15:46.119Z,4.57
2022-12-05T18:18:31.430Z,5.07
2022-12-05T18:21:16.687Z,6.13
2022-12-05T18:24:01.871Z,6.45
2022-12-05T18:26:47.599Z,5.75
2022-12-05T18:29:32.493Z,4.38
2022-12-05T18:32:19.356Z,5.57
2022-12-05T18:35:11.310Z,6.00
2022-12-05T18:37:58.298Z,6.65
2022-12-05T18:40:43.330Z,9.10
2022-12-05T18:43:28.491Z,17.75
2022-12-05T18:46:13.524Z,8.85
2022-12-05T18:49:03.059Z,11.75
2022-12-05T18:51:49.069Z,16.30
2022-12-05T18:54:34.134Z,47.95
2022-12-05T18:57:19.196Z,13.43
2022-12-05T19:00:05.973Z,7.18
2022-12-05T19:02:50.940Z,12.05
2022-12-05T19:05:36.442Z,12.05
2022-12-05T19:08:22.609Z,11.32
2022-12-05T19:11:08.044Z,12.15
2022-12-05T19:14:02.439Z,9.05
2022-12-05T19:16:58.053Z,12.93
2022-12-05T19:19:44.664Z,8.05
2022-12-05T19:22:30.533Z,11.82
2022-12-05T19:25:15.460Z,8.38
2022-12-05T19:28:00.644Z,10.43
2022-12-05T19:30:45.456Z,9.82
2022-12-05T19:33:36.062Z,9.30
2022-12-05T19:36:23.822Z,13.50
2022-12-05T19:39:14.314Z,14.52
2022-12-05T19:42:00.218Z,18.27
2022-12-05T19:44:45.787Z,12.30
2022-12-05T19:47:31.029Z,11.95
2022-12-05T19:50:16.205Z,11.10
2022-12-05T19:53:01.438Z,10.65
2022-12-05T19:55:46.681Z,10.38
2022-12-05T19:58:32.775Z,6.97
2022-12-05T20:01:30.486Z,8.50
2022-12-05T20:04:16.602Z,9.38
2022-12-05T20:07:02.154Z,10.68
2022-12-05T20:09:47.447Z,10.55
2022-12-05T20:12:32.776Z,8.82
2022-12-05T20:15:17.749Z,12.32
2022-12-05T20:18:03.089Z,12.85
2022-12-05T20:21:00.014Z,9.52
2022-12-05T20:23:46.153Z,12.82
2022-12-05T20:26:35.928Z,13.25
2022-12-05T20:32:06.326Z,15.15
2022-12-05T20:34:51.579Z,10.20
2022-12-05T20:37:36.997Z,11.02
2022-12-05T20:40:22.385Z,11.63
2022-12-05T20:43:08.085Z,10.00
2022-12-05T20:45:52.954Z,12.63
2022-12-05T20:48:38.241Z,7.72
2022-12-05T20:51:24.655Z,16.33
2022-12-05T20:54:12.627Z,13.85
2022-12-05T20:56:57.838Z,6.93
2022-12-05T20:59:42.932Z,13.77
2022-12-05T21:02:28.326Z,12.98
2022-12-05T21:05:13.901Z,14.55
2022-12-05T21:07:59.200Z,11.15
2022-12-05T21:10:46.059Z,11.45
2022-12-05T21:13:31.808Z,9.98
2022-12-05T21:16:20.908Z,10.38
2022-12-05T21:19:06.045Z,10.77
2022-12-05T21:21:53.758Z,8.98
2022-12-05T21:24:38.787Z,8.23
2022-12-05T21:27:23.953Z,8.40
2022-12-05T21:30:09.961Z,8.75
2022-12-05T21:32:55.782Z,8.77
2022-12-05T21:35:40.914Z,11.52
2022-12-05T21:38:26.186Z,10.68
2022-12-05T21:41:12.060Z,7.47
2022-12-05T21:43:57.406Z,9.73
2022-12-05T21:46:42.802Z,12.77
2022-12-05T21:49:27.988Z,12.05
2022-12-05T21:52:13.234Z,8.30
2022-12-05T21:54:58.288Z,13.20
2022-12-05T21:57:43.302Z,11.10
2022-12-05T22:00:28.314Z,7.20
2022-12-05T22:03:14.803Z,8.18
2022-12-05T22:06:05.643Z,10.35
2022-12-05T22:08:51.112Z,9.32
2022-12-05T22:11:36.501Z,7.00
2022-12-05T22:14:21.422Z,7.40
2022-12-05T22:17:06.364Z,7.63
2022-12-05T22:19:51.642Z,12.88
2022-12-05T22:22:36.621Z,7.00
2022-12-05T22:25:21.962Z,8.70
2022-12-05T22:28:06.916Z,14.35
2022-12-05T22:30:54.931Z,5.78
2022-12-05T22:33:40.624Z,10.25
2022-12-05T22:36:25.553Z,8.15
2022-12-05T22:39:12.844Z,13.90
2022-12-05T22:41:58.416Z,11.20
2022-12-05T22:44:44.822Z,13.25
2022-12-05T22:47:29.809Z,10.15
2022-12-05T22:50:15.015Z,6.25
2022-12-05T22:53:00.187Z,7.80
2022-12-05T22:55:45.140Z,8.52
2022-12-05T22:58:30.459Z,8.65
2022-12-05T23:01:24.269Z,7.78
2022-12-05T23:04:12.593Z,11.43
2022-12-05T23:06:57.882Z,7.47
2022-12-05T23:09:42.798Z,11.45
2022-12-05T23:12:27.872Z,6.43
2022-12-05T23:15:13.396Z,9.93
2022-12-05T23:17:58.571Z,6.90
2022-12-05T23:20:43.883Z,9.98
2022-12-05T23:23:28.768Z,11.13
2022-12-05T23:26:14.410Z,15.10
2022-12-05T23:28:59.748Z,8.70
2022-12-05T23:31:45.225Z,9.30
2022-12-05T23:34:30.637Z,9.48
2022-12-05T23:37:15.862Z,8.85
2022-12-05T23:40:01.487Z,14.65
2022-12-05T23:42:46.968Z,11.65
2022-12-05T23:45:31.969Z,8.98
2022-12-05T23:48:16.824Z,8.30
2022-12-05T23:51:05.497Z,9.63
2022-12-05T23:53:56.381Z,8.45
2022-12-05T23:56:42.083Z,10.43
2022-12-05T23:59:26.972Z,11.70
